Meteo Giornale » Osservazioni meteo Italia » Brescia-Montichiari

ore: 04:50 - Osservazioni Meteo Brescia-Montichiari
Lat. 45° 24' N Lon. 10° 18' E Alt. 104 metri s.l.m.

sereno Europe/Rome

4 °C

Sereno

Temp. 24 Ore

3 °C

13 °C

Nord

7.4 Km/h

Dew point 3 °C

Umidità 93 %

Visibilità  7 Km

Il sole sorge alle ore 07:22

Il sole tramonta alle ore 16:46

Data e Ora Cielo e Fenomeni T °C DP °C Um. % Pres. hPa Vis. km Vento km/h
Oggi h: 04:50 sereno Sereno 4 3 93 1014 7 N 7.4
Oggi h: 03:50 sereno Sereno 4 3 93 1014 10 N 3.7
Oggi h: 02:50 sereno Sereno 3 2 93 1015 10 N 3.7
Oggi h: 01:50 sereno Sereno 4 3 93 1015 10 N 5.5
Oggi h: 00:50 sereno Sereno 5 4 93 1016 10 N 5.5
Ieri h: 23:50 sereno Sereno 4 3 93 1016 10 N 5.5
Ieri h: 22:50 sereno Sereno 4 3 93 1017 10 NE 7.4
Ieri h: 21:50 sereno Sereno 5 4 93 1017 10 N 0
Ieri h: 20:50 sereno Sereno 6 5 93 1017 10 N 3.7
Ieri h: 19:50 sereno Sereno 6 5 93 1017 10 N 3.7
Ieri h: 18:50 sereno Sereno 7 6 93 1017 10 N 3.7
Ieri h: 17:50 sereno Sereno 9 6 81 1017 10 N 5.5
Ieri h: 16:50 sereno Sereno 11 6 71 1017 10 SO 9.3
Ieri h: 15:50 sereno Sereno 13 6 62 1017 10 SO 11.1
Ieri h: 14:50 sereno Sereno 13 8 71 1018 10 O/SO 9.3
Ieri h: 13:50 sereno Sereno 13 6 62 1018 10 SO 9.3
Ieri h: 12:50 sereno Sereno 12 5 62 1018 10 O/SO 7.4
Ieri h: 11:50 sereno Sereno 12 6 66 1019 10 S/SO 7.4
Ieri h: 10:50 sereno Sereno 10 6 76 1019 10 N 5.5
Ieri h: 09:50 sereno Sereno 10 6 76 1019 10 N 0
Ieri h: 08:50 sereno Sereno 6 4 86 1019 10 N 5.5
Ieri h: 07:50 sereno Sereno 3 2 93 1018 10 NE 7.4
Ieri h: 06:50 sereno Sereno 4 2 86 1018 10 NE 7.4
Ieri h: 05:50 sereno Sereno 4 2 86 1018 10 N 5.5